You are not logged in, Click here to log in
ICAO: RJFF Country: 日本福岡縣福岡市博多區
Latitude: 33.5903 Longitude: 130.447
Total Arrivals: 142 Total Departures: 127
Latest Arrival: EH1214 (ROAH-RJFF)Arthur. Kung Latest Departure: NX2805 (RJFF-RJBB)Arthur. Kung
Scenery:
METAR : RJFF 151830Z AUTO 36008KT 9999 FEW027 SCT050 25/22 Q1006 NOSIG

福岡空港/板付機場 FUK